createdAt,value
2018-10-05T00:01:58.103Z,99.90
2018-10-05T00:04:28.476Z,99.90
2018-10-05T00:24:20.359Z,99.90
2018-10-05T00:26:49.553Z,99.90
2018-10-05T00:29:18.654Z,99.90
2018-10-05T00:31:47.745Z,99.90
2018-10-05T00:34:16.946Z,99.90
2018-10-05T00:36:46.031Z,99.90
2018-10-05T00:39:15.124Z,99.90
2018-10-05T00:41:44.644Z,99.90
2018-10-05T00:44:13.932Z,99.90
2018-10-05T00:46:43.002Z,99.90
2018-10-05T00:49:12.113Z,99.90
2018-10-05T00:51:41.296Z,99.90
2018-10-05T00:54:10.355Z,99.90
2018-10-05T00:56:39.432Z,99.90
2018-10-05T00:59:08.583Z,99.90
2018-10-05T01:01:37.763Z,99.90
2018-10-05T01:04:06.815Z,99.90
2018-10-05T01:06:35.908Z,99.90
2018-10-05T01:09:06.619Z,99.90
2018-10-05T01:11:35.798Z,99.90
2018-10-05T01:14:04.966Z,99.90
2018-10-05T01:16:34.062Z,99.90
2018-10-05T01:19:03.171Z,99.90
2018-10-05T01:21:32.299Z,99.90
2018-10-05T01:24:01.505Z,99.90
2018-10-05T01:26:30.647Z,99.90
2018-10-05T01:28:59.839Z,99.90
2018-10-05T01:31:28.931Z,99.90
2018-10-05T01:33:58.667Z,99.90
2018-10-05T01:36:27.796Z,99.90
2018-10-05T01:38:56.981Z,99.90
2018-10-05T01:41:41.830Z,99.90
2018-10-05T01:44:11.612Z,99.90
2018-10-05T01:46:40.877Z,99.90
2018-10-05T01:49:09.962Z,99.90
2018-10-05T01:51:39.099Z,99.90
2018-10-05T01:54:08.236Z,99.90
2018-10-05T01:56:37.510Z,99.90
2018-10-05T01:59:06.565Z,99.90
2018-10-05T02:01:35.671Z,99.90
2018-10-05T02:04:04.796Z,99.90
2018-10-05T02:06:33.878Z,99.90
2018-10-05T02:09:03.545Z,99.90
2018-10-05T02:11:32.598Z,99.90
2018-10-05T02:14:01.770Z,99.90
2018-10-05T02:16:30.842Z,99.90
2018-10-05T02:18:59.924Z,99.90
2018-10-05T02:21:29.583Z,99.90
2018-10-05T02:23:58.632Z,99.90
2018-10-05T02:26:28.342Z,99.90
2018-10-05T02:28:57.417Z,99.90
2018-10-05T02:31:26.502Z,99.90
2018-10-05T02:33:55.584Z,99.90
2018-10-05T02:36:24.654Z,99.90
2018-10-05T02:38:53.857Z,99.90
2018-10-05T02:41:22.919Z,99.90
2018-10-05T02:43:51.962Z,99.90
2018-10-05T02:46:21.124Z,99.90
2018-10-05T02:48:50.215Z,99.90
2018-10-05T02:51:19.254Z,99.90
2018-10-05T02:53:48.347Z,99.90
2018-10-05T02:56:17.410Z,99.90
2018-10-05T02:58:46.489Z,99.90
2018-10-05T03:01:26.928Z,99.90
2018-10-05T03:03:56.001Z,99.90
2018-10-05T03:06:25.072Z,99.90
2018-10-05T03:08:54.153Z,99.90
2018-10-05T03:11:23.236Z,99.90
2018-10-05T03:13:52.408Z,99.90
2018-10-05T03:16:22.057Z,99.90
2018-10-05T03:18:52.091Z,99.90
2018-10-05T03:21:21.126Z,99.90
2018-10-05T03:23:50.206Z,99.90
2018-10-05T03:26:19.297Z,99.90
2018-10-05T03:28:48.399Z,99.90
2018-10-05T03:31:17.456Z,99.90
2018-10-05T03:33:46.640Z,99.90
2018-10-05T03:36:15.784Z,99.90
2018-10-05T03:38:44.992Z,99.90
2018-10-05T03:41:14.074Z,99.90
2018-10-05T03:43:43.141Z,99.90
2018-10-05T03:46:12.945Z,99.90
2018-10-05T03:48:42.035Z,99.90
2018-10-05T03:51:11.294Z,99.90
2018-10-05T03:53:40.372Z,99.90
2018-10-05T03:56:09.467Z,99.90
2018-10-05T03:58:38.565Z,99.90
2018-10-05T04:01:07.647Z,99.90
2018-10-05T04:03:36.817Z,99.90
2018-10-05T04:06:06.164Z,99.90
2018-10-05T04:08:35.819Z,99.90
2018-10-05T04:11:04.952Z,99.90
2018-10-05T04:13:34.539Z,99.90
2018-10-05T04:16:06.036Z,99.90
2018-10-05T04:18:35.105Z,99.90
2018-10-05T04:21:05.332Z,99.90
2018-10-05T04:23:34.582Z,99.90
2018-10-05T04:26:03.743Z,99.90
2018-10-05T04:28:32.822Z,99.90
2018-10-05T04:31:02.017Z,99.90
2018-10-05T04:33:31.167Z,99.90
2018-10-05T04:36:00.267Z,99.90
2018-10-05T04:38:29.382Z,99.90
2018-10-05T04:40:58.569Z,99.90
2018-10-05T04:43:27.640Z,99.90
2018-10-05T04:45:56.682Z,99.90
2018-10-05T04:48:25.766Z,99.90
2018-10-05T04:50:54.852Z,99.90
2018-10-05T04:53:23.984Z,99.90
2018-10-05T04:55:53.334Z,99.90
2018-10-05T04:58:22.750Z,99.90
2018-10-05T05:00:51.836Z,99.90
2018-10-05T05:03:21.183Z,99.90
2018-10-05T05:05:50.317Z,99.90
2018-10-05T05:08:19.855Z,99.90
2018-10-05T05:10:48.951Z,99.90
2018-10-05T05:13:18.047Z,99.90
2018-10-05T05:15:47.181Z,99.90
2018-10-05T05:18:17.094Z,99.90
2018-10-05T05:20:46.215Z,99.90
2018-10-05T05:23:15.383Z,99.90
2018-10-05T05:25:44.500Z,99.90
2018-10-05T05:28:13.592Z,99.90
2018-10-05T05:30:42.804Z,99.90
2018-10-05T05:33:11.975Z,99.90
2018-10-05T05:35:41.054Z,99.90
2018-10-05T05:38:10.115Z,99.90
2018-10-05T05:40:39.219Z,99.90
2018-10-05T05:43:08.330Z,99.90
2018-10-05T05:45:37.404Z,99.90
2018-10-05T05:48:07.316Z,99.90
2018-10-05T05:50:37.750Z,99.90
2018-10-05T05:53:07.607Z,99.90
2018-10-05T05:55:36.704Z,99.90
2018-10-05T05:58:05.801Z,99.90
2018-10-05T06:00:34.930Z,99.90
2018-10-05T06:03:04.033Z,99.90
2018-10-05T06:05:33.128Z,99.90
2018-10-05T06:08:02.293Z,99.90
2018-10-05T06:10:31.371Z,99.90
2018-10-05T06:13:00.464Z,99.90
2018-10-05T06:15:29.615Z,99.90
2018-10-05T06:17:58.675Z,99.90
2018-10-05T06:20:27.790Z,99.90
2018-10-05T06:22:56.940Z,99.90
2018-10-05T06:25:26.052Z,99.90
2018-10-05T06:27:55.159Z,99.90
2018-10-05T06:30:24.290Z,99.90
2018-10-05T06:32:53.421Z,99.90
2018-10-05T06:35:22.488Z,99.90
2018-10-05T06:37:51.561Z,99.90
2018-10-05T06:40:20.651Z,99.90
2018-10-05T06:42:49.860Z,99.90
2018-10-05T06:45:19.656Z,99.90
2018-10-05T06:47:48.843Z,99.90
2018-10-05T06:50:17.972Z,99.90
2018-10-05T06:52:47.079Z,99.90
2018-10-05T06:55:16.160Z,99.90
2018-10-05T06:57:45.292Z,99.90
2018-10-05T07:00:14.382Z,99.90
2018-10-05T07:02:43.540Z,99.90
2018-10-05T07:05:12.624Z,99.90
2018-10-05T07:07:41.765Z,99.90
2018-10-05T07:10:12.042Z,99.90
2018-10-05T07:12:41.168Z,99.90
2018-10-05T07:15:10.228Z,99.90
2018-10-05T07:17:39.413Z,99.90
2018-10-05T07:20:08.555Z,99.90
2018-10-05T07:22:37.777Z,99.90
2018-10-05T07:25:07.465Z,99.90
2018-10-05T07:27:36.687Z,99.90
2018-10-05T07:30:06.517Z,99.90
2018-10-05T07:32:35.584Z,99.90
2018-10-05T07:35:05.311Z,99.90
2018-10-05T07:37:41.064Z,99.90
2018-10-05T07:40:10.135Z,99.90
2018-10-05T07:42:39.252Z,99.90
2018-10-05T07:45:08.986Z,99.90
2018-10-05T07:47:38.075Z,99.90
2018-10-05T07:50:07.282Z,99.90
2018-10-05T07:52:36.452Z,99.90
2018-10-05T07:55:06.205Z,99.90
2018-10-05T07:57:35.352Z,99.90
2018-10-05T08:00:04.952Z,99.90
2018-10-05T08:19:56.599Z,99.90
2018-10-05T08:22:25.661Z,99.90
2018-10-05T08:24:54.764Z,99.90
2018-10-05T08:27:23.856Z,99.90
2018-10-05T08:29:53.727Z,99.90
2018-10-05T08:32:22.894Z,99.90
2018-10-05T08:34:52.040Z,99.90
2018-10-05T08:37:21.176Z,99.90
2018-10-05T08:39:50.548Z,99.90
2018-10-05T08:42:19.818Z,99.90
2018-10-05T08:44:48.914Z,99.90
2018-10-05T08:47:18.000Z,99.90
2018-10-05T08:49:47.126Z,99.90
2018-10-05T08:52:16.241Z,99.90
2018-10-05T08:54:45.806Z,99.90
2018-10-05T08:57:14.888Z,99.90
2018-10-05T08:59:44.015Z,99.90
2018-10-05T09:02:13.231Z,99.90
2018-10-05T09:04:42.297Z,99.90
2018-10-05T09:07:11.398Z,99.90
2018-10-05T09:09:40.494Z,99.90
2018-10-05T09:12:09.574Z,99.90
2018-10-05T09:14:38.824Z,99.90
2018-10-05T09:17:08.420Z,99.90
2018-10-05T09:19:37.506Z,99.90
2018-10-05T09:22:06.616Z,99.90
2018-10-05T09:24:35.815Z,99.90
2018-10-05T09:27:05.088Z,99.90
2018-10-05T09:29:34.231Z,99.90
2018-10-05T09:32:04.626Z,99.90
2018-10-05T09:34:33.703Z,99.90
2018-10-05T09:37:03.064Z,99.90
2018-10-05T09:39:32.499Z,99.90
2018-10-05T09:42:01.583Z,97.10
2018-10-05T09:44:31.227Z,92.00
2018-10-05T09:47:00.362Z,84.00
2018-10-05T09:49:29.420Z,74.90
2018-10-05T09:51:59.296Z,68.70
2018-10-05T09:54:28.392Z,62.90
2018-10-05T09:56:57.576Z,60.20
2018-10-05T09:59:27.491Z,57.30
2018-10-05T10:02:01.965Z,54.80
2018-10-05T10:04:31.130Z,53.90
2018-10-05T10:07:00.374Z,52.70
2018-10-05T10:09:29.458Z,51.80
2018-10-05T10:11:58.568Z,51.20
2018-10-05T10:14:27.782Z,49.50
2018-10-05T10:16:56.868Z,49.30
2018-10-05T10:19:25.986Z,50.30
2018-10-05T10:21:55.052Z,47.80
2018-10-05T10:24:24.234Z,47.40
2018-10-05T10:26:53.411Z,46.20
2018-10-05T10:29:23.552Z,46.50
2018-10-05T10:31:53.568Z,46.00
2018-10-05T10:34:22.798Z,44.80
2018-10-05T10:36:52.127Z,45.80
2018-10-05T10:39:21.184Z,44.20
2018-10-05T10:41:50.829Z,43.50
2018-10-05T10:44:19.912Z,43.60
2018-10-05T10:46:49.026Z,44.60
2018-10-05T10:49:18.163Z,46.10
2018-10-05T10:51:47.400Z,45.40
2018-10-05T10:54:17.369Z,43.80
2018-10-05T10:56:46.536Z,44.40
2018-10-05T10:59:16.586Z,44.60
2018-10-05T11:01:45.781Z,44.00
2018-10-05T11:04:14.886Z,44.30
2018-10-05T11:06:44.092Z,43.60
2018-10-05T11:09:13.199Z,43.70
2018-10-05T11:11:43.320Z,42.80
2018-10-05T11:14:12.403Z,43.40
2018-10-05T11:16:41.573Z,43.90
2018-10-05T11:19:10.682Z,43.80
2018-10-05T11:21:39.930Z,42.80
2018-10-05T11:24:09.088Z,41.90
2018-10-05T11:26:38.140Z,42.30
2018-10-05T11:29:08.356Z,41.40
2018-10-05T11:31:37.534Z,41.10
2018-10-05T11:34:07.722Z,41.40
2018-10-05T11:36:38.862Z,41.90
2018-10-05T11:39:07.951Z,41.40
2018-10-05T11:41:37.055Z,41.80
2018-10-05T11:44:06.360Z,40.80
2018-10-05T11:46:35.473Z,41.80
2018-10-05T11:49:05.365Z,41.10
2018-10-05T11:51:34.453Z,41.20
2018-10-05T11:54:04.211Z,41.90
2018-10-05T11:56:33.291Z,41.10
2018-10-05T11:59:02.421Z,40.90
2018-10-05T12:01:32.200Z,42.40
2018-10-05T12:04:01.484Z,42.30
2018-10-05T12:06:31.955Z,42.10
2018-10-05T12:09:01.525Z,43.50
2018-10-05T12:11:30.618Z,45.40
2018-10-05T12:13:59.732Z,45.90
2018-10-05T12:16:29.536Z,47.20
2018-10-05T12:18:59.133Z,50.80
2018-10-05T12:21:28.242Z,51.10
2018-10-05T12:23:58.087Z,51.90
2018-10-05T12:26:27.287Z,54.30
2018-10-05T12:28:56.435Z,52.90
2018-10-05T12:31:26.567Z,54.40
2018-10-05T12:33:56.654Z,55.30
2018-10-05T12:36:25.889Z,56.00
2018-10-05T12:38:55.001Z,55.10
2018-10-05T12:41:24.115Z,56.20
2018-10-05T12:43:53.291Z,56.60
2018-10-05T12:46:22.459Z,56.10
2018-10-05T12:48:51.583Z,57.10
2018-10-05T12:51:20.642Z,56.60
2018-10-05T12:53:49.754Z,57.00
2018-10-05T12:56:18.837Z,55.90
2018-10-05T12:58:47.935Z,56.10
2018-10-05T13:01:17.163Z,55.90
2018-10-05T13:03:46.282Z,56.00
2018-10-05T13:06:15.407Z,56.00
2018-10-05T13:08:44.580Z,57.80
2018-10-05T13:11:14.271Z,56.90
2018-10-05T13:13:43.456Z,57.30
2018-10-05T13:16:12.545Z,57.30
2018-10-05T13:18:42.251Z,58.10
2018-10-05T13:21:11.431Z,56.10
2018-10-05T13:23:40.616Z,58.90
2018-10-05T13:26:10.247Z,58.20
2018-10-05T13:28:39.892Z,57.80
2018-10-05T13:31:09.078Z,57.80
2018-10-05T13:33:38.303Z,56.50
2018-10-05T13:36:07.506Z,56.00
2018-10-05T13:38:36.709Z,57.70
2018-10-05T13:41:05.972Z,56.20
2018-10-05T13:43:35.136Z,56.40
2018-10-05T13:46:04.275Z,56.50
2018-10-05T13:48:33.338Z,56.40
2018-10-05T13:51:03.119Z,56.80
2018-10-05T13:53:32.323Z,56.30
2018-10-05T13:56:01.502Z,57.90
2018-10-05T13:58:30.569Z,56.90
2018-10-05T14:00:59.700Z,58.10
2018-10-05T14:03:28.946Z,59.40
2018-10-05T14:05:58.028Z,58.10
2018-10-05T14:08:28.037Z,57.70
2018-10-05T14:10:57.198Z,56.70
2018-10-05T14:13:26.296Z,57.10
2018-10-05T14:15:55.633Z,58.20
2018-10-05T14:18:24.890Z,57.30
2018-10-05T14:20:54.040Z,57.40
2018-10-05T14:23:23.156Z,58.00
2018-10-05T14:25:52.385Z,57.60
2018-10-05T14:28:21.618Z,58.50
2018-10-05T14:30:50.808Z,57.30
2018-10-05T14:33:20.031Z,58.20
2018-10-05T14:35:49.260Z,58.30
2018-10-05T14:38:19.108Z,57.10
2018-10-05T14:40:48.198Z,58.40
2018-10-05T14:43:23.890Z,58.10
2018-10-05T14:45:53.927Z,60.20
2018-10-05T14:48:22.933Z,58.30
2018-10-05T14:50:52.025Z,58.00
2018-10-05T14:53:21.311Z,60.30
2018-10-05T14:55:50.591Z,61.00
2018-10-05T14:58:19.763Z,59.90
2018-10-05T15:00:49.354Z,59.70
2018-10-05T15:03:18.465Z,59.80
2018-10-05T15:05:47.819Z,61.20
2018-10-05T15:08:17.092Z,62.10
2018-10-05T15:10:46.220Z,62.30
2018-10-05T15:13:15.538Z,61.40
2018-10-05T15:15:44.813Z,64.20
2018-10-05T15:18:13.864Z,63.70
2018-10-05T15:20:42.982Z,62.40
2018-10-05T15:23:12.097Z,64.40
2018-10-05T15:25:41.377Z,63.80
2018-10-05T15:28:11.537Z,64.20
2018-10-05T15:30:40.684Z,64.20
2018-10-05T15:33:10.009Z,64.80
2018-10-05T15:35:39.191Z,64.60
2018-10-05T15:38:08.731Z,60.90
2018-10-05T15:40:38.178Z,64.30
2018-10-05T15:43:07.348Z,65.60
2018-10-05T15:45:36.583Z,67.40
2018-10-05T15:48:05.726Z,68.10
2018-10-05T15:50:34.815Z,66.70
2018-10-05T15:53:05.032Z,67.00
2018-10-05T15:55:34.289Z,67.50
2018-10-05T15:58:04.039Z,69.10
2018-10-05T16:00:34.025Z,68.40
2018-10-05T16:03:04.283Z,67.80
2018-10-05T16:05:34.641Z,66.10
2018-10-05T16:08:04.479Z,69.00
2018-10-05T16:10:34.283Z,68.60
2018-10-05T16:13:03.590Z,67.70
2018-10-05T16:15:32.937Z,64.20
2018-10-05T16:18:02.129Z,66.70
2018-10-05T16:20:31.336Z,66.60
2018-10-05T16:23:00.656Z,68.00
2018-10-05T16:25:30.523Z,68.80
2018-10-05T16:28:00.595Z,67.10
2018-10-05T16:30:29.683Z,70.20
2018-10-05T16:32:58.824Z,68.60
2018-10-05T16:35:28.155Z,70.80
2018-10-05T16:37:57.289Z,67.90
2018-10-05T16:40:26.529Z,70.70
2018-10-05T16:42:56.344Z,69.60
2018-10-05T16:45:25.659Z,71.80
2018-10-05T16:47:54.766Z,71.40
2018-10-05T16:50:23.917Z,72.90
2018-10-05T16:52:53.878Z,72.90
2018-10-05T16:55:23.069Z,74.10
2018-10-05T16:57:52.277Z,76.50
2018-10-05T17:00:21.527Z,76.80
2018-10-05T17:02:50.632Z,77.50
2018-10-05T17:05:20.517Z,77.90
2018-10-05T17:07:49.734Z,78.00
2018-10-05T17:10:19.769Z,79.20
2018-10-05T17:12:48.996Z,78.30
2018-10-05T17:15:19.933Z,77.40
2018-10-05T17:17:49.093Z,79.10
2018-10-05T17:20:18.298Z,79.10
2018-10-05T17:22:47.566Z,75.80
2018-10-05T17:25:16.710Z,78.10
2018-10-05T17:27:46.007Z,74.70
2018-10-05T17:30:15.823Z,75.80
2018-10-05T17:32:46.136Z,76.70
2018-10-05T17:35:15.427Z,76.50
2018-10-05T17:37:45.493Z,76.80
2018-10-05T17:40:15.377Z,74.40
2018-10-05T17:42:44.647Z,73.90
2018-10-05T17:45:17.404Z,74.60
2018-10-05T17:47:47.284Z,75.80
2018-10-05T17:50:16.378Z,74.40
2018-10-05T17:52:46.121Z,74.70
2018-10-05T17:55:15.954Z,75.50
2018-10-05T17:57:45.699Z,74.70
2018-10-05T18:00:21.460Z,74.00
2018-10-05T18:02:50.582Z,74.10
2018-10-05T18:05:19.857Z,74.90
2018-10-05T18:07:48.997Z,75.20
2018-10-05T18:10:18.201Z,75.70
2018-10-05T18:12:47.540Z,78.10
2018-10-05T18:15:16.826Z,77.20
2018-10-05T18:17:46.671Z,78.10
2018-10-05T18:20:16.537Z,79.30
2018-10-05T18:22:46.260Z,78.30
2018-10-05T18:25:15.542Z,77.60
2018-10-05T18:27:44.755Z,80.50
2018-10-05T18:30:14.025Z,79.70
2018-10-05T18:32:43.367Z,78.50
2018-10-05T18:35:12.646Z,80.20
2018-10-05T18:37:41.829Z,80.00
2018-10-05T18:40:11.391Z,82.30
2018-10-05T18:42:40.505Z,82.60
2018-10-05T18:45:10.756Z,82.80
2018-10-05T18:47:40.192Z,84.00
2018-10-05T18:50:11.116Z,85.20
2018-10-05T18:52:40.326Z,85.60
2018-10-05T18:55:09.635Z,85.40
2018-10-05T18:57:39.744Z,86.40
2018-10-05T19:00:09.051Z,86.30
2018-10-05T19:02:39.100Z,87.00
2018-10-05T19:05:08.494Z,87.10
2018-10-05T19:07:37.679Z,85.70
2018-10-05T19:10:07.134Z,85.50
2018-10-05T19:12:38.690Z,87.70
2018-10-05T19:15:08.132Z,87.10
2018-10-05T19:17:37.359Z,88.70
2018-10-05T19:20:07.426Z,88.50
2018-10-05T19:22:36.861Z,87.90
2018-10-05T19:25:10.311Z,89.10
2018-10-05T19:27:40.115Z,88.30
2018-10-05T19:30:09.891Z,90.00
2018-10-05T19:32:39.712Z,89.50
2018-10-05T19:35:08.959Z,90.10
2018-10-05T19:37:38.608Z,90.10
2018-10-05T19:40:08.255Z,90.60
2018-10-05T19:42:37.968Z,91.00
2018-10-05T19:45:08.053Z,91.40
2018-10-05T19:47:37.899Z,91.60
2018-10-05T19:50:07.216Z,91.50
2018-10-05T19:52:38.750Z,91.60
2018-10-05T19:55:07.964Z,91.90
2018-10-05T19:57:37.657Z,92.30
2018-10-05T20:00:06.952Z,92.40
2018-10-05T20:02:36.841Z,92.00
2018-10-05T20:05:07.217Z,92.40
2018-10-05T20:07:37.585Z,92.60
2018-10-05T20:10:06.870Z,92.90
2018-10-05T20:12:35.993Z,93.30
2018-10-05T20:15:05.695Z,93.50
2018-10-05T20:17:34.976Z,93.70
2018-10-05T20:20:05.161Z,94.10
2018-10-05T20:22:34.965Z,94.50
2018-10-05T20:25:04.294Z,94.70
2018-10-05T20:27:34.178Z,95.20
2018-10-05T20:30:04.162Z,95.40
2018-10-05T20:32:33.337Z,95.70
2018-10-05T20:35:03.444Z,96.00
2018-10-05T20:37:32.975Z,96.30
2018-10-05T20:40:02.516Z,96.80
2018-10-05T20:42:31.670Z,97.30
2018-10-05T20:45:00.854Z,97.80
2018-10-05T20:47:30.069Z,98.40
2018-10-05T20:49:59.367Z,99.00
2018-10-05T20:52:29.476Z,99.80
2018-10-05T20:54:59.275Z,99.90
2018-10-05T20:57:29.087Z,99.90
2018-10-05T20:59:58.230Z,99.90
2018-10-05T21:02:29.681Z,99.90
2018-10-05T21:04:58.928Z,99.90
2018-10-05T21:07:28.161Z,99.90
2018-10-05T21:09:58.341Z,99.90
2018-10-05T21:12:27.477Z,99.90
2018-10-05T21:14:57.597Z,99.90
2018-10-05T21:17:27.561Z,99.90
2018-10-05T21:22:24.012Z,99.90
2018-10-05T21:24:53.828Z,99.90
2018-10-05T21:27:23.078Z,99.90
2018-10-05T21:29:52.258Z,99.90
2018-10-05T21:32:21.928Z,99.90
2018-10-05T21:34:51.279Z,99.90
2018-10-05T21:37:21.175Z,99.90
2018-10-05T21:39:50.492Z,99.90
2018-10-05T21:42:20.164Z,99.90
2018-10-05T21:44:49.877Z,99.90
2018-10-05T21:47:19.109Z,99.90
2018-10-05T21:49:49.359Z,99.90
2018-10-05T21:52:18.560Z,99.90
2018-10-05T21:54:47.706Z,99.90
2018-10-05T21:57:17.007Z,99.90
2018-10-05T21:59:46.857Z,99.90
2018-10-05T22:02:15.975Z,99.90
2018-10-05T22:04:45.905Z,99.90
2018-10-05T22:07:15.081Z,99.90
2018-10-05T22:09:45.517Z,99.90
2018-10-05T22:12:14.692Z,99.90
2018-10-05T22:14:43.840Z,99.90
2018-10-05T22:17:13.018Z,99.90
2018-10-05T22:19:42.262Z,99.90
2018-10-05T22:22:11.309Z,99.90
2018-10-05T22:24:40.588Z,99.90
2018-10-05T22:27:09.937Z,99.90
2018-10-05T22:29:39.095Z,99.90
2018-10-05T22:32:08.239Z,99.90
2018-10-05T22:34:38.623Z,99.90
2018-10-05T22:37:08.363Z,99.90
2018-10-05T22:39:37.483Z,99.90
2018-10-05T22:42:06.626Z,99.90
2018-10-05T22:44:35.770Z,99.90
2018-10-05T22:47:05.587Z,99.90
2018-10-05T22:49:35.305Z,99.90
2018-10-05T22:52:04.590Z,99.90
2018-10-05T22:54:33.880Z,99.90
2018-10-05T22:57:03.074Z,99.90
2018-10-05T22:59:32.290Z,99.90
2018-10-05T23:02:01.541Z,99.90
2018-10-05T23:04:30.612Z,99.90
2018-10-05T23:07:00.596Z,99.90
2018-10-05T23:09:30.703Z,99.90
2018-10-05T23:11:59.833Z,99.90
2018-10-05T23:14:28.991Z,99.90
2018-10-05T23:16:58.146Z,99.90
2018-10-05T23:19:27.359Z,99.90
2018-10-05T23:21:57.749Z,99.90
2018-10-05T23:24:27.040Z,99.90
2018-10-05T23:26:56.136Z,99.90
2018-10-05T23:29:25.234Z,99.90
2018-10-05T23:31:54.344Z,99.90
2018-10-05T23:34:23.451Z,99.90
2018-10-05T23:36:52.585Z,99.90
2018-10-05T23:39:23.476Z,99.90
2018-10-05T23:41:52.547Z,99.90
2018-10-05T23:44:21.614Z,99.90
2018-10-05T23:46:51.238Z,99.90
2018-10-05T23:49:20.601Z,99.90
2018-10-05T23:51:49.715Z,99.90
2018-10-05T23:54:18.916Z,99.90
2018-10-05T23:56:48.019Z,99.90
2018-10-05T23:59:17.143Z,99.90
